Time;durP1;ratioP1;P1;durP2;ratioP2;P2;SDS_P1;SDS_P2;PMS_P1;PMS_P2;Temp;Humidity;BMP_temperature;BMP_pressure;BME280_temperature;BME280_humidity;BME280_pressure;Samples;Min_cycle;Max_cycle;Signal;HPM_P1;HPM_P2
2023/11/08 00:01:00;;;;;;;9.50;5.00;;;9.60;85.00;;;;;;9168493;19;20019;-71
2023/11/08 00:04:06;;;;;;;10.68;5.60;;;9.60;85.00;;;;;;9167434;19;20691;-70
2023/11/08 00:07:16;;;;;;;10.60;5.82;;;9.60;85.00;;;;;;9167622;19;20248;-71
2023/11/08 00:10:22;;;;;;;11.80;5.85;;;9.60;85.40;;;;;;9167347;19;20033;-71
2023/11/08 00:13:29;;;;;;;11.65;6.53;;;9.70;85.10;;;;;;9166895;19;20019;-71
2023/11/08 00:16:34;;;;;;;13.18;5.50;;;9.70;85.30;;;;;;9166218;19;20025;-71
2023/11/08 00:19:42;;;;;;;10.25;5.72;;;9.70;85.20;;;;;;9167012;19;20027;-70
2023/11/08 00:22:51;;;;;;;14.23;5.65;;;9.60;85.70;;;;;;9167308;19;20019;-70
2023/11/08 00:25:58;;;;;;;11.73;5.80;;;9.60;85.00;;;;;;9164726;19;20566;-72
2023/11/08 00:29:04;;;;;;;10.32;5.55;;;9.60;85.00;;;;;;9166240;19;20025;-72
2023/11/08 00:32:11;;;;;;;9.32;5.55;;;9.60;85.10;;;;;;9167524;19;20022;-72
2023/11/08 00:35:18;;;;;;;16.27;5.85;;;9.50;85.10;;;;;;9166205;19;20070;-72
2023/11/08 00:38:28;;;;;;;12.93;5.55;;;9.60;85.30;;;;;;9163928;19;20468;-72
2023/11/08 00:41:34;;;;;;;16.48;6.43;;;9.60;86.40;;;;;;9162354;19;20086;-70
2023/11/08 00:44:43;;;;;;;9.18;5.32;;;9.50;85.40;;;;;;9163949;19;20014;-72
2023/11/08 00:47:50;;;;;;;10.27;5.38;;;9.50;85.40;;;;;;9166003;19;20451;-71
2023/11/08 00:50:59;;;;;;;13.15;5.70;;;9.50;85.50;;;;;;9165784;19;20041;-72
2023/11/08 00:54:07;;;;;;;10.45;5.40;;;9.60;85.50;;;;;;9165567;19;20333;-71
2023/11/08 00:57:15;;;;;;;12.40;6.03;;;9.60;85.50;;;;;;9164593;19;20433;-71
2023/11/08 01:00:21;;;;;;;8.85;5.53;;;9.60;85.50;;;;;;9165592;19;20014;-71
2023/11/08 01:03:28;;;;;;;10.43;6.18;;;9.60;85.50;;;;;;9165194;19;20034;-70
2023/11/08 01:06:34;;;;;;;10.82;6.55;;;9.50;85.60;;;;;;9165577;19;20014;-70
2023/11/08 01:09:44;;;;;;;12.73;6.03;;;9.60;86.00;;;;;;9165591;19;20040;-70
2023/11/08 01:12:50;;;;;;;12.02;6.50;;;9.60;86.10;;;;;;9164368;19;20119;-71
2023/11/08 01:15:57;;;;;;;13.43;7.43;;;9.60;86.10;;;;;;9164748;19;20026;-72
2023/11/08 01:19:03;;;;;;;11.45;6.68;;;9.50;85.70;;;;;;9164794;19;20376;-71
2023/11/08 01:22:11;;;;;;;13.02;6.47;;;9.50;85.70;;;;;;9162777;19;20479;-71
2023/11/08 01:25:19;;;;;;;14.38;6.72;;;9.50;85.80;;;;;;9162072;19;20448;-71
2023/11/08 01:28:30;;;;;;;12.13;6.95;;;9.50;85.90;;;;;;9163177;19;20018;-72
2023/11/08 01:31:35;;;;;;;11.57;6.80;;;9.50;85.90;;;;;;9164385;19;20071;-71
2023/11/08 01:34:43;;;;;;;9.82;7.15;;;9.60;85.90;;;;;;9161704;19;20032;-71
2023/11/08 01:37:48;;;;;;;10.57;6.53;;;9.60;86.00;;;;;;9162157;19;20025;-71
2023/11/08 01:40:58;;;;;;;15.88;7.05;;;9.60;86.00;;;;;;9156067;19;20661;-71
2023/11/08 01:44:04;;;;;;;8.68;6.35;;;9.60;86.10;;;;;;9159129;19;20018;-72
2023/11/08 01:47:14;;;;;;;11.82;6.82;;;9.60;86.20;;;;;;9156133;19;20014;-75
2023/11/08 01:50:21;;;;;;;10.73;7.50;;;9.70;87.50;;;;;;9157114;19;20019;-72
2023/11/08 01:53:30;;;;;;;14.77;7.85;;;9.60;86.20;;;;;;9157974;19;20029;-73
2023/11/08 01:56:39;;;;;;;15.98;8.05;;;9.60;86.20;;;;;;9162063;19;20601;-72
2023/11/08 01:59:48;;;;;;;12.60;7.53;;;9.60;86.90;;;;;;9163822;19;20630;-71
2023/11/08 02:02:54;;;;;;;12.13;7.22;;;9.70;87.30;;;;;;9160375;19;20026;-72
2023/11/08 02:06:02;;;;;;;12.02;8.18;;;9.70;88.40;;;;;;9163557;19;20384;-71
2023/11/08 02:09:08;;;;;;;11.20;7.40;;;9.60;86.10;;;;;;9162539;19;20022;-73
2023/11/08 02:12:22;;;;;;;14.10;8.95;;;9.60;86.00;;;;;;9162551;19;20033;-72
2023/11/08 02:15:29;;;;;;;21.65;9.35;;;9.60;86.20;;;;;;9162948;19;20052;-70
2023/11/08 02:18:41;;;;;;;16.65;8.35;;;9.60;86.00;;;;;;9159153;19;20017;-71
2023/11/08 02:21:46;;;;;;;12.57;8.82;;;9.60;86.20;;;;;;9162048;19;20018;-71
2023/11/08 02:24:56;;;;;;;14.10;8.60;;;9.60;86.20;;;;;;9163002;19;20029;-71
2023/11/08 02:28:02;;;;;;;19.00;9.13;;;9.60;86.30;;;;;;9162436;19;20014;-71
2023/11/08 02:31:09;;;;;;;15.95;8.35;;;9.60;86.20;;;;;;9162159;19;20122;-70
2023/11/08 02:34:15;;;;;;;12.30;8.52;;;9.60;86.20;;;;;;9161749;19;20011;-70
2023/11/08 02:37:22;;;;;;;15.32;8.70;;;9.60;86.40;;;;;;9166410;19;20017;-73
2023/11/08 02:40:30;;;;;;;17.60;8.68;;;9.60;85.70;;;;;;9166406;19;20013;-70
2023/11/08 02:43:39;;;;;;;18.05;8.05;;;9.60;86.30;;;;;;9171865;19;20025;-71
2023/11/08 02:46:44;;;;;;;18.92;8.40;;;9.60;86.30;;;;;;9168770;19;20543;-71
2023/11/08 02:49:52;;;;;;;12.45;7.90;;;9.60;86.20;;;;;;9171261;19;20026;-71
2023/11/08 02:52:58;;;;;;;17.38;8.07;;;9.60;86.30;;;;;;9169077;19;20029;-72
2023/11/08 02:56:09;;;;;;;15.55;7.18;;;9.60;86.30;;;;;;9170868;19;20570;-72
2023/11/08 02:59:15;;;;;;;16.17;8.23;;;9.60;86.30;;;;;;9167791;19;20569;-71
2023/11/08 03:02:23;;;;;;;12.13;7.05;;;9.60;86.30;;;;;;9170824;19;20021;-71
2023/11/08 03:05:30;;;;;;;9.70;6.90;;;9.60;86.20;;;;;;9169025;19;20026;-71
2023/11/08 03:08:38;;;;;;;10.30;6.60;;;9.60;86.30;;;;;;9169949;19;20020;-71
2023/11/08 03:11:46;;;;;;;18.95;7.30;;;9.60;86.20;;;;;;9169684;19;20021;-71
2023/11/08 03:14:54;;;;;;;14.13;7.85;;;9.60;86.20;;;;;;9167235;19;20017;-71
2023/11/08 03:17:59;;;;;;;12.77;7.32;;;9.50;86.20;;;;;;9165288;19;20017;-71
2023/11/08 03:21:08;;;;;;;12.50;7.53;;;9.50;86.30;;;;;;9169066;19;20892;-71
2023/11/08 03:24:13;;;;;;;16.70;7.95;;;9.50;86.30;;;;;;9169331;19;20026;-71
2023/11/08 03:27:23;;;;;;;17.08;7.13;;;9.50;86.30;;;;;;9169684;19;20021;-71
2023/11/08 03:30:29;;;;;;;12.70;6.97;;;9.50;86.40;;;;;;9169581;19;20484;-71
2023/11/08 03:33:37;;;;;;;13.30;7.35;;;9.50;86.40;;;;;;9168991;19;20025;-71
2023/11/08 03:36:42;;;;;;;15.57;7.43;;;9.50;86.40;;;;;;9168315;19;20011;-71
2023/11/08 03:39:50;;;;;;;11.45;6.32;;;9.50;86.50;;;;;;9160710;19;20014;-72
2023/11/08 03:42:59;;;;;;;13.90;7.05;;;9.50;86.50;;;;;;9169107;19;20047;-72
2023/11/08 03:46:08;;;;;;;8.32;5.78;;;9.50;86.50;;;;;;9169256;19;20025;-72
2023/11/08 03:49:13;;;;;;;12.65;6.63;;;9.50;86.60;;;;;;9165585;19;20368;-73
2023/11/08 03:52:21;;;;;;;10.15;5.88;;;9.50;86.60;;;;;;9168665;19;20034;-71
2023/11/08 03:55:27;;;;;;;11.75;6.68;;;9.50;86.60;;;;;;9168250;19;20040;-73
2023/11/08 03:58:37;;;;;;;9.38;5.60;;;9.50;86.70;;;;;;9167465;19;20017;-72
2023/11/08 04:01:43;;;;;;;11.90;6.07;;;9.50;86.80;;;;;;9167646;19;20471;-72
2023/11/08 04:04:51;;;;;;;12.00;6.03;;;9.50;86.70;;;;;;9167148;19;20509;-72
2023/11/08 04:07:56;;;;;;;11.95;5.88;;;9.50;86.70;;;;;;9165610;19;20021;-71
2023/11/08 04:11:04;;;;;;;9.35;6.75;;;9.50;86.70;;;;;;9166050;19;20025;-71
2023/11/08 04:14:12;;;;;;;13.75;7.85;;;9.50;86.70;;;;;;9167607;19;20479;-71
2023/11/08 04:17:19;;;;;;;14.27;7.45;;;9.60;86.90;;;;;;9163594;19;20356;-72
2023/11/08 04:20:25;;;;;;;15.75;9.15;;;9.50;86.70;;;;;;9164109;19;20023;-72
2023/11/08 04:23:32;;;;;;;16.27;9.15;;;9.50;86.70;;;;;;9168294;19;20022;-72
2023/11/08 04:26:37;;;;;;;15.80;10.05;;;9.50;86.70;;;;;;9167941;19;20081;-71
2023/11/08 04:29:47;;;;;;;16.73;9.35;;;9.50;86.70;;;;;;9167380;19;20014;-71
2023/11/08 04:32:53;;;;;;;16.90;10.30;;;9.50;86.80;;;;;;9167283;19;20439;-72
2023/11/08 04:36:02;;;;;;;20.05;11.68;;;9.50;86.80;;;;;;9166383;19;20476;-71
2023/11/08 04:39:08;;;;;;;19.77;11.40;;;9.50;86.80;;;;;;9163293;19;20052;-71
2023/11/08 04:42:16;;;;;;;22.70;11.13;;;9.50;86.90;;;;;;9166598;19;20033;-71
2023/11/08 04:45:24;;;;;;;22.42;12.13;;;9.50;86.90;;;;;;9166464;19;20010;-71
2023/11/08 04:48:31;;;;;;;20.25;11.77;;;9.50;87.00;;;;;;9165725;19;20014;-72
2023/11/08 04:51:37;;;;;;;21.63;11.82;;;9.50;87.00;;;;;;9166570;19;20045;-72
2023/11/08 04:54:45;;;;;;;22.05;10.32;;;9.50;87.10;;;;;;9165646;19;20023;-72
2023/11/08 04:57:59;;;;;;;16.80;10.32;;;9.50;87.00;;;;;;9165454;19;20271;-71
2023/11/08 05:01:09;;;;;;;17.40;10.80;;;9.50;87.10;;;;;;9162890;19;20026;-71
2023/11/08 05:04:14;;;;;;;24.13;12.13;;;9.60;87.10;;;;;;9165593;19;20439;-71
2023/11/08 05:07:22;;;;;;;20.80;11.35;;;9.60;87.10;;;;;;9163079;19;20014;-72
2023/11/08 05:10:28;;;;;;;21.23;10.93;;;9.60;87.10;;;;;;9165796;19;20023;-72
2023/11/08 05:13:38;;;;;;;18.92;10.82;;;9.60;87.50;;;;;;9165346;19;20045;-71
2023/11/08 05:16:46;;;;;;;17.42;10.30;;;9.60;87.20;;;;;;9163075;19;20039;-72
2023/11/08 05:19:53;;;;;;;16.92;10.40;;;9.60;87.30;;;;;;9162596;19;20528;-71
2023/11/08 05:22:59;;;;;;;17.83;11.55;;;9.60;87.30;;;;;;9164279;19;20018;-70
2023/11/08 05:26:07;;;;;;;20.92;11.80;;;9.70;87.30;;;;;;9162947;19;20025;-71
2023/11/08 05:29:12;;;;;;;20.08;11.95;;;9.60;87.30;;;;;;9164693;19;20373;-70
2023/11/08 05:32:24;;;;;;;15.98;10.65;;;9.70;87.30;;;;;;9162700;19;20011;-70
2023/11/08 05:35:29;;;;;;;23.92;11.52;;;9.60;87.30;;;;;;9162913;19;20015;-70
2023/11/08 05:38:37;;;;;;;21.95;11.57;;;9.70;87.30;;;;;;9164242;19;20022;-71
2023/11/08 05:41:42;;;;;;;24.80;11.52;;;9.60;87.30;;;;;;9157775;19;20014;-71
2023/11/08 05:44:50;;;;;;;22.95;12.52;;;9.70;87.70;;;;;;9163321;19;20022;-71
2023/11/08 05:47:58;;;;;;;24.95;12.27;;;9.70;87.40;;;;;;9163285;19;20878;-71
2023/11/08 05:51:06;;;;;;;22.73;11.93;;;9.60;87.40;;;;;;9162462;19;20010;-73
2023/11/08 05:54:11;;;;;;;22.15;13.43;;;9.70;87.50;;;;;;9163577;19;20442;-71
2023/11/08 05:57:19;;;;;;;19.42;11.75;;;9.70;87.50;;;;;;9163319;19;20021;-71
2023/11/08 06:00:25;;;;;;;20.00;11.73;;;9.60;88.40;;;;;;9162246;19;20049;-70
2023/11/08 06:03:35;;;;;;;17.80;11.55;;;9.70;88.30;;;;;;9159341;19;20021;-71
2023/11/08 06:06:41;;;;;;;23.30;12.00;;;9.70;87.60;;;;;;9162980;19;20339;-70
2023/11/08 06:09:50;;;;;;;25.70;12.48;;;9.70;87.70;;;;;;9163021;19;20491;-70
2023/11/08 06:12:55;;;;;;;27.33;12.20;;;9.70;87.50;;;;;;9161276;19;20018;-70
2023/11/08 06:16:02;;;;;;;22.75;11.30;;;9.70;87.60;;;;;;9161934;19;20018;-71
2023/11/08 06:19:11;;;;;;;16.27;9.73;;;9.70;87.70;;;;;;9162449;19;20052;-71
2023/11/08 06:22:18;;;;;;;21.77;10.48;;;9.70;87.60;;;;;;9162966;19;20145;-71
2023/11/08 06:25:24;;;;;;;21.83;10.23;;;9.70;87.60;;;;;;9161414;19;20039;-71
2023/11/08 06:28:31;;;;;;;20.52;9.93;;;9.80;87.70;;;;;;9162139;19;20016;-71
2023/11/08 06:31:40;;;;;;;28.80;10.20;;;9.80;87.60;;;;;;9162926;19;20031;-71
2023/11/08 06:34:50;;;;;;;21.65;10.32;;;9.80;87.60;;;;;;9160142;19;20022;-72
2023/11/08 06:37:55;;;;;;;18.27;9.25;;;9.80;87.60;;;;;;9162311;19;20018;-71
2023/11/08 06:41:03;;;;;;;21.60;10.07;;;9.80;87.60;;;;;;9153802;19;20487;-71
2023/11/08 06:44:09;;;;;;;17.20;10.15;;;9.80;87.60;;;;;;9162364;19;20011;-71
2023/11/08 06:47:17;;;;;;;18.98;10.10;;;9.80;87.60;;;;;;9161535;19;20022;-70
2023/11/08 06:50:25;;;;;;;16.15;8.98;;;9.80;87.60;;;;;;9161123;19;20051;-71
2023/11/08 06:53:33;;;;;;;22.90;10.05;;;9.80;87.60;;;;;;9161309;19;20019;-70
2023/11/08 06:56:38;;;;;;;19.85;8.95;;;9.80;87.60;;;;;;9160791;19;20035;-70
2023/11/08 06:59:46;;;;;;;16.48;9.27;;;9.80;87.60;;;;;;9156790;19;20013;-71
2023/11/08 07:02:53;;;;;;;21.75;9.10;;;9.80;87.70;;;;;;9162284;19;20002;-70
2023/11/08 07:06:05;;;;;;;15.93;8.82;;;9.80;87.90;;;;;;9160115;19;20519;-71
2023/11/08 07:09:11;;;;;;;22.45;9.05;;;9.80;87.70;;;;;;9158706;19;20018;-70
2023/11/08 07:12:19;;;;;;;18.27;8.88;;;9.70;87.70;;;;;;9156823;19;20014;-70
2023/11/08 07:15:24;;;;;;;16.65;8.40;;;9.80;88.20;;;;;;9157779;19;20022;-70
2023/11/08 07:18:31;;;;;;;16.15;8.77;;;9.80;87.70;;;;;;9157920;19;20074;-71
2023/11/08 07:21:40;;;;;;;25.10;8.15;;;9.80;88.00;;;;;;9153651;19;20030;-71
2023/11/08 07:24:47;;;;;;;18.48;7.20;;;9.80;87.80;;;;;;9169173;19;20014;-70
2023/11/08 07:27:53;;;;;;;24.38;8.38;;;9.90;88.60;;;;;;9168434;19;20025;-70
2023/11/08 07:31:00;;;;;;;22.58;7.13;;;9.80;87.80;;;;;;9165528;19;20014;-70
2023/11/08 07:34:06;;;;;;;17.35;7.15;;;9.90;87.80;;;;;;9166916;19;20025;-70
2023/11/08 07:37:16;;;;;;;18.05;6.93;;;9.80;87.70;;;;;;9168880;19;20468;-71
2023/11/08 07:40:22;;;;;;;14.07;6.90;;;9.80;87.70;;;;;;9163276;19;20845;-70
2023/11/08 07:43:29;;;;;;;14.57;6.78;;;9.80;87.60;;;;;;9169987;19;20752;-70
2023/11/08 07:46:34;;;;;;;14.38;7.10;;;9.80;87.60;;;;;;9168125;19;20018;-70
2023/11/08 07:49:42;;;;;;;18.35;8.85;;;9.80;87.70;;;;;;9168233;19;20492;-70
2023/11/08 07:52:51;;;;;;;10.55;6.65;;;9.90;87.70;;;;;;9168901;19;20585;-70
2023/11/08 07:55:59;;;;;;;25.45;7.53;;;9.80;87.70;;;;;;9165703;19;20017;-70
2023/11/08 07:59:04;;;;;;;15.27;6.40;;;9.90;87.80;;;;;;9168338;19;20011;-71
2023/11/08 08:02:11;;;;;;;10.63;5.78;;;9.90;87.80;;;;;;9163115;19;20571;-71
2023/11/08 08:05:17;;;;;;;16.70;6.35;;;9.80;87.70;;;;;;9164333;19;20010;-71
2023/11/08 08:08:27;;;;;;;12.95;5.55;;;9.90;87.70;;;;;;9165569;19;20021;-69
2023/11/08 08:11:32;;;;;;;11.85;5.00;;;9.80;87.60;;;;;;9165312;19;20022;-69
2023/11/08 08:14:40;;;;;;;14.80;5.45;;;9.90;87.70;;;;;;9163472;19;20014;-70
2023/11/08 08:17:45;;;;;;;10.73;4.80;;;9.80;87.60;;;;;;9164005;19;20113;-70
2023/11/08 08:20:53;;;;;;;13.52;4.68;;;9.80;87.70;;;;;;9163616;19;20231;-70
2023/11/08 08:24:02;;;;;;;8.90;4.97;;;9.80;87.60;;;;;;9166805;19;20018;-70
2023/11/08 08:27:13;;;;;;;6.43;4.13;;;9.80;87.60;;;;;;9167451;19;20362;-70
2023/11/08 08:30:20;;;;;;;10.35;5.00;;;9.80;87.60;;;;;;9165518;19;20022;-69
2023/11/08 08:33:28;;;;;;;12.10;3.50;;;9.80;87.60;;;;;;9165984;19;20022;-70
2023/11/08 08:36:33;;;;;;;11.27;4.00;;;9.80;87.60;;;;;;9166216;19;20011;-70
2023/11/08 08:39:43;;;;;;;9.30;4.28;;;9.80;87.60;;;;;;9158936;19;20023;-69
2023/11/08 08:42:50;;;;;;;11.45;5.05;;;9.80;87.60;;;;;;9158794;19;20070;-70
2023/11/08 08:45:58;;;;;;;8.63;3.60;;;9.80;87.50;;;;;;9161876;19;20018;-69
2023/11/08 08:49:03;;;;;;;7.88;3.42;;;9.80;87.60;;;;;;9162668;19;20030;-70
2023/11/08 08:52:14;;;;;;;5.45;2.80;;;9.80;87.50;;;;;;9161240;19;20098;-70
2023/11/08 08:55:23;;;;;;;9.40;3.45;;;9.80;87.50;;;;;;9160063;19;20014;-70
2023/11/08 08:58:32;;;;;;;7.63;2.85;;;9.80;87.60;;;;;;9163321;19;20017;-70
2023/11/08 09:01:37;;;;;;;7.22;3.20;;;9.80;87.60;;;;;;9161446;19;20025;-72
2023/11/08 09:04:44;;;;;;;4.43;2.88;;;9.90;87.70;;;;;;9162801;19;20019;-69
2023/11/08 09:07:50;;;;;;;9.57;3.15;;;9.80;87.60;;;;;;9164848;19;20060;-69
2023/11/08 09:11:00;;;;;;;9.23;3.13;;;9.80;87.60;;;;;;9162064;19;20018;-69
2023/11/08 09:14:06;;;;;;;7.63;2.88;;;9.90;87.60;;;;;;9163153;19;20010;-69
2023/11/08 09:17:14;;;;;;;12.93;2.70;;;9.90;87.60;;;;;;9163250;19;20030;-70
2023/11/08 09:20:19;;;;;;;7.90;2.85;;;9.90;87.60;;;;;;9162887;19;20022;-70
2023/11/08 09:23:28;;;;;;;5.22;2.90;;;10.00;87.70;;;;;;9159457;19;20015;-70
2023/11/08 09:26:36;;;;;;;8.18;3.33;;;10.00;87.70;;;;;;9163532;19;20082;-70
2023/11/08 09:29:43;;;;;;;4.15;2.30;;;10.00;87.70;;;;;;9161754;19;20018;-70
2023/11/08 09:32:50;;;;;;;9.38;3.55;;;10.00;87.70;;;;;;9162833;19;20010;-71
2023/11/08 09:35:58;;;;;;;9.90;2.53;;;10.00;87.60;;;;;;9161660;19;20046;-70
2023/11/08 09:39:03;;;;;;;7.70;3.55;;;10.10;87.60;;;;;;9158548;19;20019;-70
2023/11/08 09:42:14;;;;;;;7.68;2.60;;;10.10;87.60;;;;;;9154146;19;20029;-70
2023/11/08 09:45:19;;;;;;;11.25;2.78;;;10.10;87.60;;;;;;9161986;19;20018;-70
2023/11/08 09:48:26;;;;;;;9.93;2.60;;;10.10;87.50;;;;;;9158194;19;20011;-71
2023/11/08 09:51:34;;;;;;;7.35;2.60;;;10.20;87.60;;;;;;9163110;19;20315;-70
2023/11/08 09:54:42;;;;;;;11.63;2.80;;;10.20;87.60;;;;;;9162710;19;20465;-70
2023/11/08 09:57:53;;;;;;;5.72;2.97;;;10.20;87.50;;;;;;9161403;19;20007;-70
2023/11/08 10:01:01;;;;;;;8.98;2.50;;;10.30;87.60;;;;;;9161183;19;20019;-70
2023/11/08 10:04:10;;;;;;;12.13;2.83;;;10.30;87.60;;;;;;9163253;19;20026;-70
2023/11/08 10:07:19;;;;;;;4.50;2.60;;;10.40;87.70;;;;;;9159898;19;20377;-70
2023/11/08 10:10:24;;;;;;;4.63;2.03;;;10.50;87.70;;;;;;9161116;19;20014;-70
2023/11/08 10:13:48;;;;;;;9.07;2.25;;;10.60;87.70;;;;;;9162266;19;20370;-70
2023/11/08 10:16:54;;;;;;;9.18;2.40;;;10.70;87.60;;;;;;9158339;19;20025;-71
2023/11/08 10:20:08;;;;;;;6.68;2.08;;;10.70;87.60;;;;;;9161026;19;20580;-71
2023/11/08 10:23:28;;;;;;;11.40;2.80;;;10.80;87.70;;;;;;9161113;19;20452;-70
2023/11/08 10:26:36;;;;;;;8.48;2.35;;;10.90;87.50;;;;;;9162874;19;20021;-70
2023/11/08 10:29:45;;;;;;;7.68;2.20;;;11.00;87.50;;;;;;9161814;19;20022;-70
2023/11/08 10:32:52;;;;;;;4.90;2.03;;;11.00;87.40;;;;;;9161607;19;20692;-70
2023/11/08 10:35:58;;;;;;;10.40;2.35;;;11.10;87.30;;;;;;9161007;19;20015;-70
2023/11/08 10:39:13;;;;;;;12.60;2.58;;;11.20;87.40;;;;;;9161348;19;20007;-70
2023/11/08 10:42:19;;;;;;;10.05;3.53;;;11.30;87.20;;;;;;9160765;19;20033;-70
2023/11/08 10:45:32;;;;;;;9.07;2.60;;;11.40;87.20;;;;;;9157860;19;20046;-70
2023/11/08 10:48:39;;;;;;;10.55;1.95;;;11.50;87.10;;;;;;9160475;19;20103;-70
2023/11/08 10:51:47;;;;;;;13.85;2.38;;;11.60;87.10;;;;;;9160027;19;20030;-70
2023/11/08 10:54:52;;;;;;;12.50;3.42;;;11.70;87.10;;;;;;9161284;19;20341;-69
2023/11/08 10:58:04;;;;;;;8.45;2.25;;;11.80;87.00;;;;;;9162390;19;20019;-70
2023/11/08 11:01:14;;;;;;;8.90;2.00;;;11.80;86.90;;;;;;9169473;19;20025;-69
2023/11/08 11:04:24;;;;;;;11.82;2.78;;;11.90;86.80;;;;;;9166454;19;20010;-69
2023/11/08 11:07:30;;;;;;;9.07;2.47;;;12.00;87.30;;;;;;9169645;19;20018;-71
2023/11/08 11:10:38;;;;;;;9.38;2.22;;;12.10;86.60;;;;;;9169689;19;20379;-70
2023/11/08 11:13:49;;;;;;;11.13;2.30;;;12.10;86.50;;;;;;9170333;19;20026;-70
2023/11/08 11:17:07;;;;;;;13.63;2.42;;;12.20;86.30;;;;;;9168869;19;20034;-71
2023/11/08 11:20:16;;;;;;;8.23;1.80;;;12.20;86.20;;;;;;9170245;19;20769;-72
2023/11/08 11:23:34;;;;;;;6.50;2.10;;;12.20;86.10;;;;;;9167486;19;20030;-70
2023/11/08 11:26:47;;;;;;;5.97;1.77;;;12.20;85.90;;;;;;9168062;19;20093;-70
2023/11/08 11:30:28;;;;;;;11.32;2.70;;;12.20;85.90;;;;;;9168273;19;20022;-69
2023/11/08 11:33:37;;;;;;;6.45;2.78;;;12.10;85.90;;;;;;9164529;19;20021;-70
2023/11/08 11:37:08;;;;;;;6.03;1.80;;;12.20;85.90;;;;;;9166003;19;20022;-69
2023/11/08 11:40:17;;;;;;;7.95;2.15;;;12.20;85.90;;;;;;9159282;19;20060;-71
2023/11/08 11:43:42;;;;;;;7.22;1.90;;;12.20;85.90;;;;;;9167546;19;20302;-71
2023/11/08 11:46:52;;;;;;;5.72;1.70;;;12.10;85.60;;;;;;9167977;19;20074;-70
2023/11/08 11:50:05;;;;;;;6.95;1.88;;;12.10;85.60;;;;;;9168719;19;20491;-70
2023/11/08 11:53:11;;;;;;;9.05;2.00;;;12.10;85.70;;;;;;9167199;19;20026;-70
2023/11/08 11:56:18;;;;;;;9.07;3.03;;;12.00;85.70;;;;;;9167836;19;20022;-70
2023/11/08 11:59:24;;;;;;;9.82;2.50;;;12.10;85.70;;;;;;9167073;19;20015;-70
2023/11/08 12:02:32;;;;;;;7.50;2.10;;;12.00;85.60;;;;;;9166681;19;20034;-71
2023/11/08 12:05:41;;;;;;;11.93;2.40;;;12.10;85.70;;;;;;9166554;19;20037;-70
2023/11/08 12:08:49;;;;;;;11.50;2.28;;;12.10;85.60;;;;;;9164810;19;20021;-70
2023/11/08 12:11:54;;;;;;;7.28;2.45;;;12.10;85.70;;;;;;9167486;19;20068;-70
2023/11/08 12:15:14;;;;;;;12.63;2.22;;;12.20;85.60;;;;;;9164347;19;20039;-70
2023/11/08 12:18:20;;;;;;;10.57;2.10;;;12.20;85.50;;;;;;9163524;19;20407;-72
2023/11/08 12:21:30;;;;;;;13.27;1.67;;;12.20;85.50;;;;;;9160455;19;20022;-70
2023/11/08 12:24:36;;;;;;;8.30;2.17;;;12.20;85.40;;;;;;9158905;19;20011;-70
2023/11/08 12:27:44;;;;;;;9.10;1.90;;;12.20;85.30;;;;;;9160087;19;20026;-71
2023/11/08 12:30:49;;;;;;;13.48;2.33;;;12.20;85.30;;;;;;9160316;19;20015;-69
2023/11/08 12:33:58;;;;;;;6.95;1.80;;;12.20;85.10;;;;;;9159431;19;20026;-72
2023/11/08 12:37:07;;;;;;;6.43;1.58;;;12.20;85.00;;;;;;9157200;19;20014;-72
2023/11/08 12:40:19;;;;;;;5.93;1.67;;;12.30;85.00;;;;;;9155130;19;20022;-71
2023/11/08 12:43:25;;;;;;;7.50;1.55;;;12.30;84.90;;;;;;9162116;19;20022;-71
2023/11/08 12:46:56;;;;;;;10.77;1.95;;;12.30;84.90;;;;;;9163544;19;20014;-70
2023/11/08 12:50:13;;;;;;;7.78;1.73;;;12.30;84.80;;;;;;9164220;19;20506;-72
2023/11/08 12:53:24;;;;;;;11.20;2.10;;;12.30;84.60;;;;;;9164679;19;20022;-71
2023/11/08 12:56:29;;;;;;;8.05;1.85;;;12.20;84.60;;;;;;9163161;19;20074;-72
2023/11/08 12:59:45;;;;;;;12.90;1.73;;;12.20;84.60;;;;;;9163198;19;20015;-71
2023/11/08 13:02:59;;;;;;;12.57;2.33;;;12.30;84.50;;;;;;9162282;19;20011;-71
2023/11/08 13:06:07;;;;;;;16.25;2.85;;;12.20;84.50;;;;;;9162916;19;20011;-71
2023/11/08 13:09:16;;;;;;;12.30;1.80;;;12.30;84.50;;;;;;9159752;19;20015;-71
2023/11/08 13:12:24;;;;;;;10.50;1.70;;;12.30;84.40;;;;;;9160874;19;20022;-70
2023/11/08 13:15:29;;;;;;;8.40;1.77;;;12.30;84.50;;;;;;9161173;19;20010;-69
2023/11/08 13:18:37;;;;;;;11.80;2.40;;;12.30;84.40;;;;;;9162662;19;20026;-70
2023/11/08 13:21:42;;;;;;;5.80;1.52;;;12.30;84.40;;;;;;9161368;19;20014;-70
2023/11/08 13:24:52;;;;;;;6.35;1.38;;;12.30;84.20;;;;;;9160955;19;20014;-70
2023/11/08 13:27:59;;;;;;;8.88;1.52;;;12.30;84.10;;;;;;9161797;19;20018;-70
2023/11/08 13:31:08;;;;;;;6.97;1.48;;;12.30;84.10;;;;;;9162337;19;20029;-70
2023/11/08 13:34:13;;;;;;;9.77;1.48;;;12.20;84.10;;;;;;9159758;19;20034;-70
2023/11/08 13:37:20;;;;;;;13.77;1.85;;;12.30;84.00;;;;;;9160849;19;20047;-70
2023/11/08 13:40:29;;;;;;;12.25;2.03;;;12.20;84.00;;;;;;9157710;19;20577;-70
2023/11/08 13:43:37;;;;;;;11.30;2.58;;;12.30;83.90;;;;;;9161670;19;20113;-70
2023/11/08 13:46:43;;;;;;;9.60;2.03;;;12.20;83.90;;;;;;9161511;19;20025;-70
2023/11/08 13:49:50;;;;;;;14.45;2.72;;;12.30;84.00;;;;;;9159642;19;20022;-71
2023/11/08 13:52:56;;;;;;;5.78;1.45;;;12.20;83.80;;;;;;9158775;19;20023;-71
2023/11/08 13:56:06;;;;;;;12.13;1.83;;;12.20;83.80;;;;;;9161594;19;20034;-71
2023/11/08 13:59:12;;;;;;;4.10;1.60;;;12.20;84.40;;;;;;9158526;19;20028;-70
2023/11/08 14:02:20;;;;;;;7.82;1.80;;;12.20;83.80;;;;;;9161339;19;20034;-71
2023/11/08 14:05:26;;;;;;;12.30;1.70;;;12.20;83.80;;;;;;9159286;19;20015;-70
2023/11/08 14:08:33;;;;;;;11.57;2.20;;;12.20;83.80;;;;;;9160542;19;20024;-71
2023/11/08 14:11:41;;;;;;;10.38;1.70;;;12.20;83.80;;;;;;9160898;19;20081;-70
2023/11/08 14:14:48;;;;;;;4.82;1.70;;;12.20;83.80;;;;;;9161044;19;20015;-70
2023/11/08 14:17:55;;;;;;;4.65;1.60;;;12.20;83.80;;;;;;9160679;19;20018;-71
2023/11/08 14:21:02;;;;;;;9.40;1.90;;;12.10;83.70;;;;;;9158199;19;20372;-70
2023/11/08 14:24:09;;;;;;;5.35;1.65;;;12.00;83.70;;;;;;9159023;19;20022;-70
2023/11/08 14:27:19;;;;;;;7.28;1.63;;;12.00;83.70;;;;;;9158540;19;20022;-70
2023/11/08 14:30:24;;;;;;;4.70;1.75;;;12.00;83.70;;;;;;9158710;19;20018;-71
2023/11/08 14:33:32;;;;;;;9.30;1.55;;;12.00;83.70;;;;;;9165075;19;20365;-70
2023/11/08 14:36:38;;;;;;;9.18;3.42;;;11.90;83.70;;;;;;9169270;19;20078;-71
2023/11/08 14:40:05;;;;;;;4.85;1.05;;;11.90;83.70;;;;;;9167418;19;20015;-72
2023/11/08 14:43:13;;;;;;;8.43;1.30;;;11.90;83.80;;;;;;9168941;19;20086;-69
2023/11/08 14:46:20;;;;;;;6.18;1.98;;;11.80;83.70;;;;;;9167632;19;20022;-72
2023/11/08 14:49:27;;;;;;;9.63;1.67;;;11.80;83.80;;;;;;9167863;19;20070;-71
2023/11/08 14:52:35;;;;;;;8.60;1.77;;;11.80;83.80;;;;;;9169622;19;20029;-72
2023/11/08 14:55:41;;;;;;;7.55;2.28;;;11.80;83.80;;;;;;9170218;19;20018;-70
2023/11/08 14:58:51;;;;;;;8.45;2.00;;;11.70;83.80;;;;;;9168986;19;20383;-71
2023/11/08 15:01:58;;;;;;;8.27;1.75;;;11.70;83.80;;;;;;9170366;19;20093;-71
2023/11/08 15:05:06;;;;;;;12.10;1.90;;;11.70;84.00;;;;;;9166188;19;20018;-70
2023/11/08 15:08:13;;;;;;;4.20;1.58;;;11.70;83.90;;;;;;9166354;19;20566;-71
2023/11/08 15:11:41;;;;;;;5.32;1.55;;;11.60;83.90;;;;;;9167241;19;20014;-71
2023/11/08 15:14:51;;;;;;;11.05;1.50;;;11.60;83.80;;;;;;9169662;19;20041;-71
2023/11/08 15:17:58;;;;;;;11.73;1.52;;;11.60;83.90;;;;;;9168196;19;20814;-70
2023/11/08 15:21:04;;;;;;;5.35;1.52;;;11.60;84.20;;;;;;9166171;19;20031;-72
2023/11/08 15:24:12;;;;;;;4.97;1.48;;;11.50;83.80;;;;;;9168273;19;20394;-72
2023/11/08 15:27:18;;;;;;;12.70;1.52;;;11.50;83.90;;;;;;9167511;19;20031;-70
2023/11/08 15:30:28;;;;;;;4.28;1.40;;;11.50;83.80;;;;;;9168523;19;20041;-71
2023/11/08 15:33:33;;;;;;;8.90;1.20;;;11.50;83.80;;;;;;9167803;19;20022;-71
2023/11/08 15:36:41;;;;;;;13.50;2.35;;;11.40;83.80;;;;;;9168871;19;20010;-72
2023/11/08 15:39:46;;;;;;;7.57;1.73;;;11.40;83.80;;;;;;9165211;19;20022;-70
2023/11/08 15:42:53;;;;;;;5.22;1.48;;;11.40;83.90;;;;;;9169525;19;20295;-71
2023/11/08 15:46:01;;;;;;;5.88;1.42;;;11.30;83.80;;;;;;9167162;19;20014;-70
2023/11/08 15:49:14;;;;;;;5.03;1.35;;;11.30;83.90;;;;;;9168069;19;20025;-71
2023/11/08 15:52:20;;;;;;;3.00;1.20;;;11.30;83.80;;;;;;9167374;19;20099;-72
2023/11/08 15:55:27;;;;;;;10.43;1.63;;;11.30;83.90;;;;;;9168621;19;20033;-72
2023/11/08 15:58:33;;;;;;;3.65;0.85;;;11.30;83.90;;;;;;9164931;19;20093;-71
2023/11/08 16:01:45;;;;;;;4.47;1.50;;;11.20;83.90;;;;;;9168795;19;20388;-70
2023/11/08 16:04:51;;;;;;;8.88;1.38;;;11.20;83.90;;;;;;9166948;19;20022;-70
2023/11/08 16:08:00;;;;;;;5.57;1.10;;;11.20;84.00;;;;;;9168253;19;20495;-70
2023/11/08 16:11:07;;;;;;;6.10;2.25;;;11.20;84.00;;;;;;9167193;19;20065;-71
2023/11/08 16:14:15;;;;;;;5.38;1.40;;;11.10;83.90;;;;;;9168209;19;20379;-70
2023/11/08 16:17:22;;;;;;;6.20;1.13;;;11.10;84.00;;;;;;9167795;19;20022;-73